createdAt,value
2023-05-05T04:02:33.629Z,45.4
2023-05-05T04:42:41.487Z,45.7
2023-05-05T07:42:33.265Z,47.6
2023-05-05T08:02:33.282Z,47.1
2023-05-05T08:22:33.191Z,45.4
2023-05-05T08:42:38.075Z,43.7
2023-05-05T09:02:41.250Z,44.5
2023-05-05T09:22:33.093Z,41.6
2023-05-05T09:42:33.082Z,46.5
2023-05-05T10:02:33.128Z,52.6
2023-05-05T10:22:33.029Z,50
2023-05-05T10:42:33.157Z,48.1
2023-05-05T11:02:32.959Z,45.8
2023-05-05T11:22:32.920Z,44.8
2023-05-05T11:42:32.893Z,49.2
2023-05-05T12:02:40.934Z,57.5
2023-05-05T12:42:32.794Z,56
2023-05-05T13:02:32.817Z,54.4
2023-05-05T13:22:40.926Z,54.8
2023-05-05T13:42:32.734Z,58.3
2023-05-05T14:02:32.741Z,60.3
2023-05-05T14:22:32.590Z,63.3
2023-05-05T15:02:32.691Z,58.3
2023-05-05T15:22:32.761Z,67.8
2023-05-05T15:42:32.561Z,75.8
2023-05-05T16:02:32.743Z,79.1
2023-05-05T16:22:32.500Z,74
2023-05-05T16:42:32.476Z,74.5
2023-05-05T17:02:32.262Z,76.6
2023-05-05T17:22:32.585Z,79.2
2023-05-05T17:42:32.199Z,78.5
2023-05-05T18:02:32.537Z,83.1
2023-05-05T18:42:32.260Z,86.5
2023-05-05T19:02:32.330Z,88.1
2023-05-05T19:22:32.257Z,89.4
2023-05-05T19:42:32.254Z,90.3
2023-05-05T20:02:33.362Z,91.2
2023-05-05T20:22:32.160Z,92.4
2023-05-05T20:42:32.174Z,93.1
2023-05-05T21:42:32.082Z,94.5
2023-05-05T22:02:32.301Z,94.7
2023-05-05T22:22:32.057Z,94.9
2023-05-05T22:42:31.799Z,95
2023-05-05T23:02:32.024Z,95.3
2023-05-05T23:22:31.967Z,95.5
2023-05-05T23:42:31.966Z,95.5
